Ambia, Indiana
Current Conditions -  °F | °C
As of 2:55 AM on Monday 22 Dec 2014 (Local Time) from KDNV Reporting Station
Scattered Clouds Scattered Clouds  
Wind Chill: 25°   Ceiling: Unl
Heat Index: 30°   Visibility: 7mi
Dew Point: 28°   Wind: 5mph
Humidity: 90%   Direction: 100°E
Pressure: 29.97"   Gusts: NA
Location:  40.49°N, 87.52°W
Report Text: KDNV 220755Z AUTO 10004KT 7SM SCT100 M01/M02 A2997 RMK AO2 T10111025
Loading
Personal Weather Stations






























Interactive Weather Map New forecast layout! Learn more

10-Day Weather Forecast

Advertisements
Track Severe Weather on mobile